Time;durP1;ratioP1;P1;durP2;ratioP2;P2;SDS_P1;SDS_P2;PMS_P1;PMS_P2;Temp;Humidity;BMP_temperature;BMP_pressure;BME280_temperature;BME280_humidity;BME280_pressure;Samples;Min_cycle;Max_cycle;Signal;HPM_P1;HPM_P2
2022/12/09 00:00:32;;;;;;;35.40;29.20;;;0.60;99.90;;;;;;5079373;28;20472;-69
2022/12/09 00:02:59;;;;;;;30.17;26.53;;;0.60;99.90;;;;;;5080382;28;20465;-70
2022/12/09 00:05:27;;;;;;;33.20;27.83;;;0.50;99.90;;;;;;5085775;28;20475;-69
2022/12/09 00:07:54;;;;;;;29.67;26.47;;;0.50;99.90;;;;;;5086825;28;20466;-69
2022/12/09 00:10:21;;;;;;;36.17;28.57;;;0.50;99.90;;;;;;5086036;28;20474;-70
2022/12/09 00:12:48;;;;;;;33.80;26.40;;;0.50;99.90;;;;;;5091975;28;20461;-70
2022/12/09 00:15:15;;;;;;;32.43;26.80;;;0.40;99.90;;;;;;5083371;28;20963;-69
2022/12/09 00:17:42;;;;;;;35.80;26.70;;;0.40;99.90;;;;;;5084593;28;20453;-69
2022/12/09 00:20:10;;;;;;;34.27;28.87;;;0.30;99.90;;;;;;5077185;28;20802;-70
2022/12/09 00:22:39;;;;;;;35.53;27.83;;;0.20;99.90;;;;;;5080954;28;20483;-70
2022/12/09 00:25:06;;;;;;;30.80;27.07;;;0.20;99.90;;;;;;5072395;28;20476;-70
2022/12/09 00:27:34;;;;;;;33.43;26.83;;;0.20;99.90;;;;;;5083975;28;20468;-70
2022/12/09 00:30:01;;;;;;;34.97;28.60;;;0.10;99.90;;;;;;5078673;28;20487;-70
2022/12/09 00:32:28;;;;;;;33.20;27.23;;;0.30;99.90;;;;;;5084178;28;20473;-70
2022/12/09 00:34:55;;;;;;;32.87;29.27;;;0.30;99.90;;;;;;5078356;28;20454;-70
2022/12/09 00:37:22;;;;;;;34.27;28.40;;;0.30;99.90;;;;;;5081820;28;20979;-70
2022/12/09 00:39:50;;;;;;;37.03;29.77;;;0.40;99.90;;;;;;5078132;28;20617;-70
2022/12/09 00:42:17;;;;;;;34.43;29.30;;;0.50;99.90;;;;;;5080238;28;20859;-70
2022/12/09 00:44:43;;;;;;;37.80;30.70;;;0.50;99.90;;;;;;5081782;28;20468;-70
2022/12/09 00:47:10;;;;;;;34.73;28.83;;;0.60;99.90;;;;;;5080656;28;20676;-70
2022/12/09 00:49:37;;;;;;;39.43;30.50;;;0.50;99.90;;;;;;5072680;28;20455;-70
2022/12/09 00:52:04;;;;;;;40.00;29.57;;;0.40;99.90;;;;;;5079163;28;20509;-70
2022/12/09 00:54:30;;;;;;;43.27;29.70;;;0.30;99.90;;;;;;5078141;28;20473;-70
2022/12/09 00:56:59;;;;;;;37.70;29.30;;;0.20;99.90;;;;;;5081400;28;20837;-70
2022/12/09 00:59:26;;;;;;;36.17;29.90;;;0.20;99.90;;;;;;5072621;28;20472;-70
2022/12/09 01:01:52;;;;;;;49.00;29.50;;;0.20;99.90;;;;;;5079315;28;20486;-70
2022/12/09 01:04:19;;;;;;;36.33;30.17;;;0.30;99.90;;;;;;5079500;28;20815;-70
2022/12/09 01:06:46;;;;;;;37.30;28.93;;;0.30;99.90;;;;;;5077319;28;20475;-71
2022/12/09 01:09:13;;;;;;;39.13;29.40;;;0.30;99.90;;;;;;5076344;28;20464;-70
2022/12/09 01:11:40;;;;;;;39.17;30.40;;;0.10;99.90;;;;;;5074575;28;20459;-71
2022/12/09 01:14:08;;;;;;;42.70;30.60;;;0.00;99.90;;;;;;5072953;28;21146;-71
2022/12/09 01:16:36;;;;;;;50.43;31.17;;;-0.10;99.90;;;;;;5079782;28;20461;-71
2022/12/09 01:19:05;;;;;;;34.20;28.67;;;0.00;99.90;;;;;;5080743;28;20900;-71
2022/12/09 01:21:33;;;;;;;30.70;27.43;;;0.00;99.90;;;;;;5076640;28;20562;-70
2022/12/09 01:24:00;;;;;;;41.97;29.97;;;-0.20;99.90;;;;;;5074323;28;20474;-71
2022/12/09 01:26:28;;;;;;;33.00;25.27;;;-0.30;99.90;;;;;;5082080;28;20687;-71
2022/12/09 01:28:56;;;;;;;34.63;24.43;;;-0.40;99.90;;;;;;5079586;28;20481;-71
2022/12/09 01:31:25;;;;;;;31.20;25.93;;;-0.30;99.90;;;;;;5078643;28;20472;-72
2022/12/09 01:33:55;;;;;;;30.20;25.30;;;-0.30;99.90;;;;;;5075904;28;20956;-71
2022/12/09 01:36:25;;;;;;;31.27;26.27;;;-0.40;99.90;;;;;;5084915;28;20843;-71
2022/12/09 01:38:53;;;;;;;34.10;23.73;;;-0.40;99.90;;;;;;5078141;28;20472;-71
2022/12/09 01:41:22;;;;;;;31.80;24.00;;;-0.50;99.90;;;;;;5080707;28;20846;-72
2022/12/09 01:44:08;;;;;;;32.30;24.50;;;-0.50;99.90;;;;;;5084953;28;20822;-72
2022/12/09 01:46:36;;;;;;;32.03;25.70;;;-0.50;99.90;;;;;;5075977;28;20466;-72
2022/12/09 01:49:03;;;;;;;35.37;24.77;;;-0.40;99.90;;;;;;5077222;28;20461;-72
2022/12/09 01:51:31;;;;;;;33.90;27.93;;;-0.40;99.90;;;;;;5078993;28;21037;-72
2022/12/09 01:53:58;;;;;;;37.43;27.37;;;-0.40;99.90;;;;;;5077890;28;20472;-72
2022/12/09 01:56:28;;;;;;;36.07;25.57;;;-0.30;99.90;;;;;;5077518;28;20458;-72
2022/12/09 01:58:58;;;;;;;36.83;25.50;;;-0.30;99.90;;;;;;5080154;28;20477;-72
2022/12/09 02:01:25;;;;;;;34.40;26.70;;;-0.30;99.90;;;;;;5076424;28;20488;-72
2022/12/09 02:03:54;;;;;;;33.83;25.90;;;-0.20;99.90;;;;;;5082467;28;20489;-72
2022/12/09 02:06:21;;;;;;;38.00;25.07;;;-0.20;99.90;;;;;;5084206;28;20949;-72
2022/12/09 02:08:49;;;;;;;35.50;25.03;;;-0.10;99.90;;;;;;5076895;28;20465;-72
2022/12/09 02:11:25;;;;;;;32.20;25.03;;;-0.10;99.90;;;;;;5075722;28;20473;-72
2022/12/09 02:14:00;;;;;;;39.67;25.93;;;0.00;99.90;;;;;;5079436;28;20511;-72
2022/12/09 02:16:31;;;;;;;33.57;26.30;;;0.00;99.90;;;;;;5082043;28;20461;-72
2022/12/09 02:19:05;;;;;;;31.67;25.13;;;0.10;99.90;;;;;;5073797;28;20473;-72
2022/12/09 02:21:37;;;;;;;36.30;25.53;;;0.20;99.90;;;;;;5076389;28;20496;-72
2022/12/09 02:24:12;;;;;;;37.63;25.27;;;0.40;99.90;;;;;;5079925;28;20469;-72
2022/12/09 02:26:42;;;;;;;32.17;25.90;;;0.50;99.90;;;;;;5077771;28;20513;-72
2022/12/09 02:29:39;;;;;;;29.87;25.43;;;0.50;99.90;;;;;;5078382;28;20485;-72
2022/12/09 02:32:20;;;;;;;36.70;26.93;;;0.50;99.90;;;;;;5079618;28;20464;-72
2022/12/09 02:34:55;;;;;;;31.57;25.50;;;0.40;99.90;;;;;;5080439;28;20476;-72
2022/12/09 02:37:27;;;;;;;31.57;25.83;;;0.40;99.90;;;;;;5080565;28;20704;-72
2022/12/09 02:40:00;;;;;;;31.80;26.57;;;0.30;99.90;;;;;;5087291;28;20470;-72
2022/12/09 02:42:32;;;;;;;30.67;24.60;;;0.20;99.90;;;;;;5074981;28;20568;-72
2022/12/09 02:45:00;;;;;;;41.70;26.43;;;0.10;99.90;;;;;;5077547;28;20477;-72
2022/12/09 02:47:31;;;;;;;32.57;25.20;;;0.00;99.90;;;;;;5081530;28;20470;-72
2022/12/09 02:50:03;;;;;;;30.33;23.30;;;0.00;99.90;;;;;;5079918;28;20479;-72
2022/12/09 02:52:31;;;;;;;31.97;24.40;;;-0.10;99.90;;;;;;5076239;28;20497;-72
2022/12/09 02:55:00;;;;;;;27.60;23.77;;;-0.10;99.90;;;;;;5082593;28;20465;-72
2022/12/09 02:57:29;;;;;;;34.50;25.70;;;-0.10;99.90;;;;;;5082827;28;20885;-72
2022/12/09 02:59:56;;;;;;;34.50;25.37;;;-0.10;99.90;;;;;;5075911;28;20464;-72
2022/12/09 03:02:28;;;;;;;32.10;26.30;;;-0.10;99.90;;;;;;5086882;28;20496;-72
2022/12/09 03:05:08;;;;;;;28.37;24.57;;;0.00;99.90;;;;;;5078103;28;20484;-72
2022/12/09 03:07:42;;;;;;;36.50;27.07;;;0.10;99.90;;;;;;5081366;28;20991;-72
2022/12/09 03:10:15;;;;;;;33.57;26.50;;;0.20;99.90;;;;;;5077529;28;20457;-72
2022/12/09 03:12:47;;;;;;;31.87;24.53;;;0.30;99.90;;;;;;5078505;28;21047;-72
2022/12/09 03:15:17;;;;;;;31.57;25.63;;;0.30;99.90;;;;;;5082917;28;20904;-72
2022/12/09 03:17:45;;;;;;;33.33;27.47;;;0.40;99.90;;;;;;5077692;28;20793;-73
2022/12/09 03:20:17;;;;;;;34.60;26.10;;;0.50;99.90;;;;;;5079205;28;20481;-72
2022/12/09 03:22:47;;;;;;;36.50;25.93;;;0.50;99.90;;;;;;5096589;28;20499;-72
2022/12/09 03:25:17;;;;;;;35.30;25.53;;;0.50;99.90;;;;;;5079415;28;20470;-72
2022/12/09 03:27:49;;;;;;;35.00;26.57;;;0.60;99.90;;;;;;5075308;28;20483;-72
2022/12/09 03:30:18;;;;;;;30.87;26.20;;;0.60;99.90;;;;;;5074141;28;20468;-73
2022/12/09 03:32:46;;;;;;;37.33;26.93;;;0.70;99.90;;;;;;5079904;28;20462;-72
2022/12/09 03:35:20;;;;;;;37.27;25.73;;;0.70;99.90;;;;;;5083450;28;20645;-72
2022/12/09 03:37:49;;;;;;;31.20;25.40;;;0.80;99.90;;;;;;5081621;28;20576;-72
2022/12/09 03:40:22;;;;;;;26.60;23.70;;;0.80;99.90;;;;;;5080966;28;20453;-72
2022/12/09 03:42:58;;;;;;;36.03;28.03;;;0.80;99.90;;;;;;5078729;28;20485;-72
2022/12/09 03:45:26;;;;;;;34.23;27.63;;;0.80;99.90;;;;;;5083944;28;20457;-72
2022/12/09 03:47:54;;;;;;;33.30;27.17;;;0.90;99.90;;;;;;5083800;28;20533;-71
2022/12/09 03:50:23;;;;;;;34.10;28.20;;;1.00;99.90;;;;;;5086128;28;20461;-71
2022/12/09 03:52:54;;;;;;;35.37;29.60;;;1.00;99.90;;;;;;5076898;28;20491;-71
2022/12/09 03:55:26;;;;;;;32.23;27.53;;;1.10;99.90;;;;;;5080635;28;20450;-71
2022/12/09 03:57:56;;;;;;;34.00;29.23;;;1.10;99.90;;;;;;5079026;28;20454;-71
2022/12/09 04:00:23;;;;;;;33.57;28.17;;;1.10;99.90;;;;;;5082874;28;20834;-71
2022/12/09 04:02:50;;;;;;;37.27;28.50;;;1.20;99.90;;;;;;5081095;28;21024;-71
2022/12/09 04:05:17;;;;;;;30.00;26.20;;;1.10;99.90;;;;;;5079819;28;20464;-71
2022/12/09 04:07:45;;;;;;;40.53;28.50;;;1.10;99.90;;;;;;5081771;28;20458;-71
2022/12/09 04:10:12;;;;;;;32.73;29.33;;;1.10;99.90;;;;;;5083130;28;20454;-71
2022/12/09 04:12:39;;;;;;;37.70;28.47;;;1.20;99.90;;;;;;5081698;28;20462;-71
2022/12/09 04:15:08;;;;;;;35.60;28.97;;;1.20;99.90;;;;;;5084084;28;20500;-71
2022/12/09 04:17:36;;;;;;;38.33;28.43;;;1.20;99.90;;;;;;5081933;28;20460;-71
2022/12/09 04:20:03;;;;;;;45.13;28.30;;;1.10;99.90;;;;;;5081032;28;20548;-71
2022/12/09 04:22:30;;;;;;;31.83;26.83;;;1.20;99.90;;;;;;5083339;28;20516;-71
2022/12/09 04:24:59;;;;;;;35.90;28.20;;;1.10;99.90;;;;;;5081640;28;20694;-71
2022/12/09 04:27:26;;;;;;;38.50;30.00;;;1.00;99.90;;;;;;5084091;28;20468;-71
2022/12/09 04:29:53;;;;;;;49.20;29.83;;;1.10;99.90;;;;;;5079005;28;20493;-70
2022/12/09 04:32:21;;;;;;;38.90;29.00;;;1.10;99.90;;;;;;5081524;28;20469;-71
2022/12/09 04:34:47;;;;;;;40.53;29.03;;;1.20;99.90;;;;;;5079935;28;21002;-70
2022/12/09 04:37:15;;;;;;;37.33;30.43;;;1.30;99.90;;;;;;5079498;28;20458;-70
2022/12/09 04:39:41;;;;;;;45.20;29.10;;;1.30;99.90;;;;;;5097260;28;20503;-69
2022/12/09 04:42:10;;;;;;;30.73;27.43;;;1.40;99.90;;;;;;5081569;28;20505;-70
2022/12/09 04:44:37;;;;;;;37.27;29.43;;;1.40;99.90;;;;;;5078062;28;20459;-71
2022/12/09 04:47:04;;;;;;;41.50;30.03;;;1.50;99.90;;;;;;5086102;28;20458;-70
2022/12/09 04:49:31;;;;;;;42.60;30.37;;;1.50;99.90;;;;;;5082689;28;20463;-71
2022/12/09 04:51:59;;;;;;;40.63;30.17;;;1.50;99.90;;;;;;5081414;28;20486;-71
2022/12/09 04:54:26;;;;;;;34.93;28.50;;;1.60;99.90;;;;;;5092528;28;20459;-71
2022/12/09 04:56:54;;;;;;;33.67;28.43;;;1.50;99.90;;;;;;5081406;28;20481;-71
2022/12/09 04:59:22;;;;;;;36.40;28.63;;;1.50;99.90;;;;;;5077299;28;20537;-71
2022/12/09 05:01:50;;;;;;;34.33;29.47;;;1.60;99.90;;;;;;5081880;28;20467;-71
2022/12/09 05:04:16;;;;;;;37.07;28.43;;;1.60;99.90;;;;;;5075023;28;20493;-71
2022/12/09 05:06:43;;;;;;;41.97;31.83;;;1.70;99.90;;;;;;5086616;28;20466;-71
2022/12/09 05:09:12;;;;;;;42.27;30.20;;;1.80;99.90;;;;;;5081289;28;20462;-71
2022/12/09 05:11:40;;;;;;;40.27;31.47;;;1.70;99.90;;;;;;5077112;28;20941;-71
2022/12/09 05:14:07;;;;;;;36.83;29.43;;;1.70;99.90;;;;;;5079801;28;20461;-71
2022/12/09 05:16:35;;;;;;;32.90;29.33;;;1.70;99.90;;;;;;5075180;28;20776;-71
2022/12/09 05:19:03;;;;;;;39.43;31.20;;;1.80;99.90;;;;;;5075841;28;20808;-70
2022/12/09 05:21:30;;;;;;;44.33;31.23;;;1.80;99.90;;;;;;5083173;28;20481;-72
2022/12/09 05:23:58;;;;;;;35.03;29.77;;;1.80;99.90;;;;;;5079684;28;21019;-71
2022/12/09 05:26:26;;;;;;;42.37;29.97;;;1.80;99.90;;;;;;5071541;28;20453;-71
2022/12/09 05:28:53;;;;;;;33.73;29.67;;;1.70;99.90;;;;;;5081869;28;20462;-71
2022/12/09 05:31:22;;;;;;;43.43;29.80;;;1.70;99.90;;;;;;5079363;28;21020;-71
2022/12/09 05:33:51;;;;;;;41.37;29.50;;;1.80;99.90;;;;;;5079192;28;20472;-70
2022/12/09 05:36:20;;;;;;;38.87;29.77;;;1.80;99.90;;;;;;5081712;28;20466;-73
2022/12/09 05:38:47;;;;;;;37.03;29.23;;;1.80;99.90;;;;;;5084160;28;20849;-70
2022/12/09 05:41:14;;;;;;;46.40;28.90;;;1.90;99.90;;;;;;5085111;28;20462;-70
2022/12/09 05:43:41;;;;;;;41.93;29.77;;;1.90;99.90;;;;;;5077710;28;20609;-70
2022/12/09 05:46:08;;;;;;;37.27;29.27;;;1.90;99.90;;;;;;5081711;28;20466;-70
2022/12/09 05:48:35;;;;;;;38.43;29.63;;;1.90;99.90;;;;;;5082391;28;20780;-70
2022/12/09 05:51:06;;;;;;;33.60;27.20;;;2.00;99.90;;;;;;5085730;28;20465;-70
2022/12/09 05:53:33;;;;;;;41.13;30.40;;;2.00;99.90;;;;;;5086418;28;20484;-70
2022/12/09 05:56:01;;;;;;;35.93;28.50;;;1.90;99.90;;;;;;5080484;28;20473;-70
2022/12/09 05:58:28;;;;;;;32.87;29.00;;;2.00;99.90;;;;;;5076464;28;20852;-70
2022/12/09 06:00:56;;;;;;;32.97;27.87;;;2.00;99.90;;;;;;5072064;28;20989;-70
2022/12/09 06:03:23;;;;;;;39.37;27.93;;;2.10;99.90;;;;;;5082594;28;20497;-70
2022/12/09 06:05:50;;;;;;;40.13;28.63;;;2.10;99.90;;;;;;5084672;28;20492;-71
2022/12/09 06:08:18;;;;;;;42.00;26.33;;;2.00;99.90;;;;;;5075727;28;20473;-70
2022/12/09 06:10:45;;;;;;;34.50;28.30;;;2.10;99.90;;;;;;5077266;28;20475;-71
2022/12/09 06:13:12;;;;;;;38.97;28.47;;;2.10;99.90;;;;;;5077770;28;20844;-70
2022/12/09 06:15:39;;;;;;;39.13;29.93;;;2.10;99.90;;;;;;5079633;28;20776;-70
2022/12/09 06:18:05;;;;;;;32.00;27.40;;;1.90;99.90;;;;;;5078313;28;20474;-70
2022/12/09 06:20:32;;;;;;;34.97;28.60;;;1.90;99.90;;;;;;5091372;28;20472;-70
2022/12/09 06:23:00;;;;;;;36.13;27.30;;;1.90;99.90;;;;;;5082409;28;20482;-70
2022/12/09 06:25:28;;;;;;;33.70;26.87;;;2.00;99.90;;;;;;5083250;28;20893;-70
2022/12/09 06:27:55;;;;;;;37.47;27.60;;;2.00;99.90;;;;;;5080673;28;20944;-70
2022/12/09 06:30:22;;;;;;;39.00;27.33;;;2.00;99.90;;;;;;5078516;28;20461;-70
2022/12/09 06:32:49;;;;;;;33.00;28.40;;;2.00;99.90;;;;;;5075101;28;20459;-70
2022/12/09 06:35:16;;;;;;;32.97;27.17;;;2.10;99.90;;;;;;5084366;28;20458;-70
2022/12/09 06:37:43;;;;;;;38.53;27.73;;;2.10;99.90;;;;;;5077119;28;20462;-71
2022/12/09 06:40:10;;;;;;;37.80;28.70;;;2.10;99.90;;;;;;5085077;28;20462;-70
2022/12/09 06:42:39;;;;;;;33.10;28.90;;;2.10;99.90;;;;;;5079617;28;20455;-70
2022/12/09 06:45:06;;;;;;;34.60;27.30;;;2.10;99.90;;;;;;5080252;28;20459;-70
2022/12/09 06:47:33;;;;;;;29.60;26.40;;;2.10;99.90;;;;;;5081167;28;20469;-70
2022/12/09 06:50:01;;;;;;;30.53;27.23;;;2.10;99.90;;;;;;5077253;28;20460;-70
2022/12/09 06:52:29;;;;;;;39.53;27.37;;;2.10;99.90;;;;;;5076081;28;20911;-70
2022/12/09 06:54:56;;;;;;;31.53;27.57;;;2.00;99.90;;;;;;5085928;28;20829;-70
2022/12/09 06:57:23;;;;;;;36.87;27.67;;;2.00;99.90;;;;;;5085565;28;20463;-70
2022/12/09 06:59:51;;;;;;;30.63;27.33;;;2.00;99.90;;;;;;5074835;28;20454;-70
2022/12/09 07:02:17;;;;;;;31.47;25.80;;;2.10;99.90;;;;;;5075065;28;20458;-70
2022/12/09 07:04:44;;;;;;;45.30;27.10;;;2.10;99.90;;;;;;5079039;28;20851;-70
2022/12/09 07:07:13;;;;;;;33.80;28.67;;;2.10;99.90;;;;;;5078274;28;20459;-69
2022/12/09 07:09:41;;;;;;;33.13;29.53;;;2.10;99.90;;;;;;5078744;28;20897;-69
2022/12/09 07:12:08;;;;;;;33.60;28.20;;;2.10;99.90;;;;;;5086140;28;20468;-70
2022/12/09 07:14:35;;;;;;;32.77;27.10;;;2.10;99.90;;;;;;5074101;28;20476;-70
2022/12/09 07:17:04;;;;;;;36.90;29.97;;;2.10;99.90;;;;;;5077344;28;20483;-70
2022/12/09 07:19:31;;;;;;;35.23;28.73;;;2.10;99.90;;;;;;5077540;28;20511;-70
2022/12/09 07:21:57;;;;;;;29.63;26.53;;;2.10;99.90;;;;;;5079450;28;20469;-70
2022/12/09 07:24:25;;;;;;;40.60;27.10;;;2.20;99.90;;;;;;5077179;28;20490;-69
2022/12/09 07:26:52;;;;;;;37.80;28.63;;;2.10;99.90;;;;;;5084485;28;20832;-69
2022/12/09 07:29:19;;;;;;;39.80;28.70;;;2.10;99.90;;;;;;5082065;28;20849;-70
2022/12/09 07:31:46;;;;;;;40.93;28.13;;;2.10;99.90;;;;;;5084195;28;20457;-69
2022/12/09 07:34:15;;;;;;;38.80;27.70;;;2.10;99.90;;;;;;5079855;28;21095;-70
2022/12/09 07:36:42;;;;;;;34.60;27.50;;;2.10;99.90;;;;;;5081057;28;20470;-70
2022/12/09 07:39:14;;;;;;;36.90;28.50;;;2.10;99.90;;;;;;5084396;28;20457;-70
2022/12/09 07:41:41;;;;;;;36.07;27.67;;;2.00;99.90;;;;;;5087567;28;20465;-70
2022/12/09 07:44:08;;;;;;;36.10;28.40;;;2.00;99.90;;;;;;5088490;28;20485;-69
2022/12/09 07:46:35;;;;;;;35.03;29.87;;;2.10;99.90;;;;;;5084625;28;20450;-70
2022/12/09 07:49:03;;;;;;;41.10;31.43;;;2.10;99.90;;;;;;5084410;28;20463;-70
2022/12/09 07:51:32;;;;;;;37.77;29.57;;;2.10;99.90;;;;;;5082169;28;20458;-69
2022/12/09 07:53:59;;;;;;;46.80;31.83;;;2.10;99.90;;;;;;5083640;28;20466;-70
2022/12/09 07:56:27;;;;;;;40.10;30.70;;;2.10;99.90;;;;;;5085396;28;20543;-70
2022/12/09 07:58:55;;;;;;;44.00;32.07;;;2.20;99.90;;;;;;5084652;28;20467;-69
2022/12/09 08:01:24;;;;;;;47.43;33.37;;;2.30;99.90;;;;;;5082916;28;20450;-69
2022/12/09 08:03:52;;;;;;;48.07;32.93;;;2.40;99.90;;;;;;5088343;28;20834;-70
2022/12/09 08:06:21;;;;;;;40.17;29.80;;;2.20;99.90;;;;;;5085397;28;20459;-70
2022/12/09 08:08:51;;;;;;;43.17;30.70;;;2.20;99.90;;;;;;5087304;28;20462;-70
2022/12/09 08:11:19;;;;;;;43.00;29.50;;;2.20;99.90;;;;;;5089196;28;20461;-69
2022/12/09 08:13:46;;;;;;;37.47;28.87;;;2.20;99.90;;;;;;5083220;28;20473;-70
2022/12/09 08:16:14;;;;;;;32.77;28.77;;;2.20;99.90;;;;;;5089100;28;20470;-70
2022/12/09 08:18:42;;;;;;;43.23;31.90;;;2.20;99.90;;;;;;5083587;28;20983;-70
2022/12/09 08:21:11;;;;;;;46.60;33.57;;;2.30;99.90;;;;;;5087225;28;20469;-70
2022/12/09 08:23:39;;;;;;;43.03;31.90;;;2.30;99.90;;;;;;5083551;28;20492;-69
2022/12/09 08:26:09;;;;;;;50.17;33.60;;;2.40;99.90;;;;;;5082370;28;20807;-70
2022/12/09 08:28:36;;;;;;;49.63;32.03;;;2.40;99.90;;;;;;5082566;28;20562;-69
2022/12/09 08:31:07;;;;;;;47.23;33.53;;;2.50;99.90;;;;;;5083115;28;20540;-69
2022/12/09 08:33:34;;;;;;;52.83;33.00;;;2.60;99.90;;;;;;5080492;28;20498;-69
2022/12/09 08:36:02;;;;;;;41.47;30.57;;;2.60;99.90;;;;;;5080277;28;20466;-69
2022/12/09 08:38:30;;;;;;;41.00;32.40;;;2.60;99.90;;;;;;5080047;28;20476;-70
2022/12/09 08:40:57;;;;;;;48.90;32.40;;;2.70;99.90;;;;;;5085209;28;20455;-69
2022/12/09 08:43:25;;;;;;;59.20;36.70;;;2.80;99.90;;;;;;5090666;28;20462;-69
2022/12/09 08:45:52;;;;;;;55.47;35.93;;;2.90;99.90;;;;;;5087625;28;20474;-69
2022/12/09 08:48:19;;;;;;;46.90;33.33;;;3.00;99.90;;;;;;5078365;28;20454;-69
2022/12/09 08:50:46;;;;;;;43.20;33.67;;;3.10;99.90;;;;;;5084195;28;20460;-70
2022/12/09 08:53:13;;;;;;;42.77;31.63;;;3.20;99.90;;;;;;5083966;28;20484;-70
2022/12/09 08:55:41;;;;;;;47.27;31.83;;;3.30;99.90;;;;;;5077715;28;20461;-70
2022/12/09 08:58:08;;;;;;;42.33;31.00;;;3.30;99.90;;;;;;5091218;28;20457;-69
2022/12/09 09:00:36;;;;;;;47.63;31.43;;;3.30;99.90;;;;;;5089001;28;20828;-69
2022/12/09 09:03:06;;;;;;;38.73;28.33;;;3.50;99.90;;;;;;5077792;28;20523;-69
2022/12/09 09:05:32;;;;;;;47.67;30.90;;;3.50;99.90;;;;;;5085949;28;20489;-69
2022/12/09 09:08:00;;;;;;;45.47;28.33;;;3.40;99.90;;;;;;5083137;28;20558;-69
2022/12/09 09:10:28;;;;;;;42.50;32.80;;;3.50;99.90;;;;;;5078393;28;20532;-70
2022/12/09 09:12:55;;;;;;;56.97;32.47;;;3.50;99.90;;;;;;5085456;28;23129;-70
2022/12/09 09:15:23;;;;;;;58.80;31.10;;;3.50;99.90;;;;;;5084464;28;20497;-69
2022/12/09 09:17:52;;;;;;;45.33;31.10;;;3.80;99.90;;;;;;5080653;28;20591;-70
2022/12/09 09:20:19;;;;;;;43.07;30.67;;;3.90;99.90;;;;;;5076109;28;20472;-70
2022/12/09 09:22:48;;;;;;;44.77;29.90;;;3.90;99.90;;;;;;5081220;28;20986;-70
2022/12/09 09:25:17;;;;;;;34.27;28.00;;;3.90;99.90;;;;;;5075690;28;20543;-70
2022/12/09 09:27:44;;;;;;;42.30;27.03;;;4.00;99.90;;;;;;5085233;28;20489;-70
2022/12/09 09:30:12;;;;;;;37.07;27.17;;;4.10;99.90;;;;;;5082118;28;20483;-69
2022/12/09 09:32:41;;;;;;;42.13;29.27;;;4.10;99.90;;;;;;5080932;28;20487;-69
2022/12/09 09:35:10;;;;;;;35.13;26.63;;;4.10;99.90;;;;;;5073829;28;20560;-70
2022/12/09 09:37:37;;;;;;;38.97;29.03;;;4.20;99.90;;;;;;5077484;28;20550;-70
2022/12/09 09:40:05;;;;;;;36.57;29.07;;;4.00;99.90;;;;;;5078562;28;20486;-70
2022/12/09 09:42:37;;;;;;;37.90;28.73;;;4.10;99.90;;;;;;5076117;28;20466;-70
2022/12/09 09:45:11;;;;;;;42.07;30.70;;;3.90;99.90;;;;;;5076760;28;20517;-69
2022/12/09 09:47:43;;;;;;;39.17;29.30;;;3.90;99.90;;;;;;5073143;28;20497;-70
2022/12/09 09:50:24;;;;;;;37.93;29.77;;;3.80;99.90;;;;;;5078047;28;20462;-70
2022/12/09 09:52:54;;;;;;;45.73;29.57;;;3.80;99.90;;;;;;5078288;28;21262;-69
2022/12/09 09:55:31;;;;;;;38.13;29.23;;;3.60;99.90;;;;;;5072199;28;20467;-69
2022/12/09 09:58:10;;;;;;;41.97;31.27;;;3.50;99.90;;;;;;5075036;28;21000;-69
2022/12/09 10:00:47;;;;;;;43.60;29.97;;;3.40;99.90;;;;;;5081018;28;20454;-70
2022/12/09 10:03:24;;;;;;;40.10;31.07;;;3.60;99.90;;;;;;5081809;28;20493;-70
2022/12/09 10:05:55;;;;;;;48.60;30.43;;;3.70;99.90;;;;;;5075086;28;20496;-70
2022/12/09 10:08:31;;;;;;;48.57;30.80;;;3.70;99.90;;;;;;5073953;28;20467;-70
2022/12/09 10:11:07;;;;;;;51.70;32.33;;;3.80;99.90;;;;;;5078034;28;20628;-69
2022/12/09 10:13:44;;;;;;;37.97;30.40;;;3.90;99.90;;;;;;5079673;28;20455;-70
2022/12/09 10:16:14;;;;;;;43.27;30.03;;;3.90;99.90;;;;;;5080074;28;20517;-69
2022/12/09 10:18:54;;;;;;;40.53;29.00;;;4.00;99.90;;;;;;5083530;28;20476;-70
2022/12/09 10:21:23;;;;;;;36.57;29.10;;;4.10;99.90;;;;;;5074177;28;20467;-69
2022/12/09 10:23:50;;;;;;;41.53;32.33;;;4.10;99.90;;;;;;5078346;28;20473;-70
2022/12/09 10:26:22;;;;;;;39.30;28.57;;;4.20;99.90;;;;;;5086698;28;20555;-69
2022/12/09 10:29:01;;;;;;;41.47;30.40;;;4.20;99.90;;;;;;5081817;28;20458;-70
2022/12/09 10:31:29;;;;;;;38.20;29.70;;;4.20;99.90;;;;;;5080571;28;20477;-70
2022/12/09 10:33:55;;;;;;;37.60;30.90;;;4.20;99.90;;;;;;5076477;28;20944;-70
2022/12/09 10:36:26;;;;;;;43.53;30.40;;;4.20;99.90;;;;;;5064195;28;20462;-71
2022/12/09 10:38:53;;;;;;;37.10;29.73;;;4.30;99.90;;;;;;5075166;28;20474;-70
2022/12/09 10:44:22;;;;;;;40.77;31.00;;;4.20;99.90;;;;;;5077518;28;20530;-70
2022/12/09 10:46:56;;;;;;;45.43;31.23;;;4.30;99.90;;;;;;5083588;28;20826;-70
2022/12/09 10:49:23;;;;;;;37.97;29.70;;;4.30;99.90;;;;;;5077109;28;20543;-71
2022/12/09 10:51:53;;;;;;;36.87;29.30;;;4.30;99.90;;;;;;5070685;28;20474;-70
2022/12/09 10:54:33;;;;;;;35.97;29.97;;;4.30;99.90;;;;;;5079662;28;20972;-69
2022/12/09 10:57:03;;;;;;;42.23;30.40;;;4.50;99.90;;;;;;5075448;28;20817;-70
2022/12/09 10:59:31;;;;;;;42.07;29.80;;;4.70;99.90;;;;;;5080415;28;20461;-70
2022/12/09 11:01:59;;;;;;;34.40;27.77;;;4.60;99.90;;;;;;5074533;28;20461;-71
2022/12/09 11:04:28;;;;;;;37.33;28.27;;;4.70;99.90;;;;;;5076417;28;20488;-69
2022/12/09 11:07:00;;;;;;;34.57;25.93;;;4.70;99.90;;;;;;5079184;28;20470;-70
2022/12/09 11:09:29;;;;;;;39.70;28.67;;;4.70;99.90;;;;;;5079599;28;20959;-69
2022/12/09 11:11:56;;;;;;;44.17;29.17;;;4.80;99.90;;;;;;5078387;28;20463;-70
2022/12/09 11:14:34;;;;;;;31.37;26.93;;;4.90;99.90;;;;;;5079639;28;20464;-70
2022/12/09 11:17:13;;;;;;;36.20;27.10;;;4.90;99.90;;;;;;5094409;28;20453;-70
2022/12/09 11:19:41;;;;;;;34.60;28.33;;;4.90;99.90;;;;;;5086118;28;20458;-70
2022/12/09 11:22:32;;;;;;;30.30;27.20;;;4.90;99.90;;;;;;5082689;28;20861;-70
2022/12/09 11:25:17;;;;;;;33.03;26.90;;;4.90;99.90;;;;;;5082464;28;20485;-70
2022/12/09 11:27:49;;;;;;;34.30;26.90;;;4.80;99.90;;;;;;5082919;28;20461;-70
2022/12/09 11:30:19;;;;;;;32.87;27.80;;;4.90;99.90;;;;;;5084354;28;20825;-69
2022/12/09 11:33:18;;;;;;;37.20;26.73;;;5.20;99.90;;;;;;5080268;28;20548;-70
2022/12/09 11:35:53;;;;;;;35.43;27.00;;;5.50;99.90;;;;;;5082956;28;20457;-70
2022/12/09 11:38:30;;;;;;;46.63;28.37;;;5.40;99.90;;;;;;5077490;28;20471;-70
2022/12/09 11:41:01;;;;;;;29.73;26.63;;;5.80;99.90;;;;;;5083379;28;21023;-70
2022/12/09 11:43:34;;;;;;;28.03;25.40;;;6.80;99.90;;;;;;5080826;28;20457;-70
2022/12/09 11:46:08;;;;;;;25.90;23.30;;;7.70;99.90;;;;;;5077844;28;20496;-68
2022/12/09 11:48:36;;;;;;;30.10;26.13;;;8.50;99.90;;;;;;5082496;28;20496;-68
2022/12/09 11:51:02;;;;;;;28.17;25.20;;;9.20;99.90;;;;;;5079884;28;20468;-68
2022/12/09 11:53:32;;;;;;;28.10;24.93;;;9.10;99.90;;;;;;5082816;28;20852;-68
2022/12/09 11:56:04;;;;;;;26.40;24.00;;;8.80;99.90;;;;;;5088675;28;20455;-69
2022/12/09 11:58:38;;;;;;;25.93;23.33;;;8.50;99.90;;;;;;5087601;28;20977;-68
2022/12/09 12:01:11;;;;;;;25.30;22.57;;;8.20;99.90;;;;;;5084808;28;20458;-68
2022/12/09 12:03:41;;;;;;;25.80;23.43;;;8.00;99.90;;;;;;5078869;28;20808;-68
2022/12/09 12:06:15;;;;;;;27.33;24.20;;;7.50;99.90;;;;;;5078551;28;20486;-68
2022/12/09 12:08:48;;;;;;;27.53;24.67;;;7.00;99.90;;;;;;5086580;28;20463;-68
2022/12/09 12:11:20;;;;;;;29.70;23.13;;;7.10;99.90;;;;;;5088950;28;20463;-68
2022/12/09 12:13:49;;;;;;;24.93;22.60;;;7.10;99.90;;;;;;5083665;28;20944;-68
2022/12/09 12:16:26;;;;;;;26.53;24.20;;;7.00;99.90;;;;;;5076087;28;20459;-68
2022/12/09 12:18:57;;;;;;;26.63;24.03;;;7.10;99.90;;;;;;5074036;28;20454;-68
2022/12/09 12:21:40;;;;;;;27.10;24.50;;;6.80;99.90;;;;;;5077815;28;20477;-67
2022/12/09 12:24:42;;;;;;;24.83;22.53;;;6.60;99.90;;;;;;5080446;28;20959;-68
2022/12/09 12:27:23;;;;;;;26.10;23.50;;;6.70;99.90;;;;;;5082813;28;20467;-68
2022/12/09 12:29:56;;;;;;;27.70;24.83;;;6.90;99.90;;;;;;5083777;28;20487;-67
2022/12/09 12:32:37;;;;;;;26.70;24.13;;;6.60;99.90;;;;;;5086562;28;20703;-68
2022/12/09 12:35:20;;;;;;;30.93;24.83;;;6.50;99.90;;;;;;5073149;28;20609;-67
2022/12/09 12:37:56;;;;;;;26.87;24.23;;;6.20;99.90;;;;;;5079020;28;20466;-68
2022/12/09 12:40:34;;;;;;;27.23;24.60;;;5.90;99.90;;;;;;5084995;28;20468;-71
2022/12/09 12:49:04;;;;;;;25.90;23.30;;;6.00;99.90;;;;;;5075821;28;20482;-70
2022/12/09 12:51:39;;;;;;;25.37;22.93;;;6.00;99.90;;;;;;5077353;28;20967;-70
2022/12/09 12:54:15;;;;;;;26.23;23.47;;;6.00;99.90;;;;;;5078754;28;20469;-70
2022/12/09 12:56:51;;;;;;;26.03;23.43;;;5.90;99.90;;;;;;5083299;28;20519;-70